Time;durP1;ratioP1;P1;durP2;ratioP2;P2;SDS_P1;SDS_P2;PMS_P1;PMS_P2;Temp;Humidity;BMP_temperature;BMP_pressure;BME280_temperature;BME280_humidity;BME280_pressure;Samples;Min_cycle;Max_cycle;Signal;HPM_P1;HPM_P2
2020/12/18 00:28:21;;;;;;;66.00;41.27;;;;;;;4.02;74.45;101609.50;1811250;76;21170;-92
2020/12/18 00:31:26;;;;;;;;;;;;;;;;;;;;;
2020/12/18 00:34:23;;;;;;;62.83;38.63;;;;;;;3.66;74.99;101608.14;1807855;79;24186;-90
2020/12/18 00:37:12;;;;;;;61.43;40.73;;;;;;;3.60;75.09;101609.91;1687422;84;21625;-91
2020/12/18 00:39:46;;;;;;;73.43;47.73;;;;;;;3.62;75.12;101608.48;1696645;84;21860;-90
2020/12/18 00:42:42;;;;;;;69.63;47.20;;;;;;;3.55;75.51;101601.97;1801542;77;22901;-91
2020/12/18 00:45:25;;;;;;;66.57;44.40;;;;;;;3.37;75.97;101610.27;1799625;78;21160;-91
2020/12/18 00:48:19;;;;;;;60.37;41.93;;;;;;;3.28;76.53;101603.84;1793810;78;27965;-91
2020/12/18 00:50:55;;;;;;;67.50;43.67;;;;;;;3.17;76.61;101609.05;1768020;78;21361;-89
2020/12/18 00:53:36;;;;;;;73.33;45.17;;;;;;;3.15;76.74;101605.68;1770208;77;21141;-89
2020/12/18 00:56:20;;;;;;;78.40;48.20;;;;;;;3.20;76.56;101602.25;1770576;79;21156;-91
2020/12/18 00:58:54;;;;;;;83.27;52.63;;;;;;;3.12;76.74;101601.93;1756896;81;21325;-90
2020/12/18 01:01:28;;;;;;;84.83;54.30;;;;;;;2.95;77.31;101595.70;1734698;77;21137;-90
2020/12/18 01:04:05;;;;;;;69.27;42.83;;;;;;;2.83;77.71;101602.20;1754872;76;21187;-92
2020/12/18 01:06:47;;;;;;;58.23;37.47;;;;;;;2.70;78.20;101586.89;1701977;81;21143;-91
2020/12/18 01:09:30;;;;;;;70.00;41.73;;;;;;;2.71;78.26;101594.69;1711096;82;21801;-90
2020/12/18 01:12:04;;;;;;;65.63;39.63;;;;;;;2.71;78.09;101590.73;1717689;82;21163;-90
2020/12/18 01:14:46;;;;;;;63.00;38.90;;;;;;;2.63;78.21;101592.20;1717814;82;21556;-89
2020/12/18 01:17:17;;;;;;;67.13;40.20;;;;;;;2.44;78.67;101591.31;1716283;82;21164;-88
2020/12/18 01:19:48;;;;;;;57.60;35.00;;;;;;;2.30;79.04;101582.56;1689817;82;21218;-90
2020/12/18 01:22:54;;;;;;;57.87;34.73;;;;;;;2.37;79.14;101576.88;1802215;78;23084;-89
2020/12/18 01:25:26;;;;;;;50.53;33.13;;;;;;;2.32;79.19;101579.84;1802226;78;21278;-90
2020/12/18 01:27:56;;;;;;;60.90;36.70;;;;;;;2.25;79.42;101580.71;1767601;80;21425;-90
2020/12/18 01:30:24;;;;;;;70.23;39.50;;;;;;;2.18;79.65;101582.55;1717499;81;21218;-90
2020/12/18 01:32:57;;;;;;;52.13;31.93;;;;;;;2.22;79.56;101584.02;1719403;81;21311;-89
2020/12/18 01:35:56;;;;;;;55.60;35.53;;;;;;;2.34;79.00;101574.83;1774147;79;24022;-90
2020/12/18 01:38:27;;;;;;;58.17;35.40;;;;;;;2.26;79.12;101579.78;1664770;84;21196;-90
2020/12/18 01:40:54;;;;;;;69.83;41.70;;;;;;;2.19;79.43;101586.88;1655223;83;21139;-91
2020/12/18 01:43:24;;;;;;;65.53;42.03;;;;;;;0.85;79.25;101382.37;1675889;83;21238;-92
2020/12/18 01:45:56;;;;;;;62.27;37.17;;;;;;;2.15;79.20;101584.92;1648314;86;21196;-91
2020/12/18 01:48:31;;;;;;;61.27;38.00;;;;;;;2.16;79.16;101581.81;1641319;84;21303;-90
2020/12/18 01:51:13;;;;;;;60.67;37.00;;;;;;;2.08;79.42;101582.33;1662599;82;21345;-94
2020/12/18 01:54:21;;;;;;;70.93;41.23;;;;;;;2.00;79.68;101580.21;1692713;83;21319;-93
2020/12/18 01:57:03;;;;;;;62.83;38.83;;;;;;;2.11;79.58;101573.77;1795854;79;22923;-92
2020/12/18 01:59:41;;;;;;;64.53;40.60;;;;;;;2.15;79.48;101574.40;1820258;77;22537;-94
2020/12/18 02:02:22;;;;;;;67.83;39.97;;;;;;;2.04;79.58;101575.59;1802734;78;21274;-93
2020/12/18 02:05:05;;;;;;;61.47;39.83;;;;;;;1.95;79.91;101579.66;1817610;78;21282;-93
2020/12/18 02:14:00;;;;;;;54.03;34.47;;;;;;;2.00;79.93;101570.14;1754882;78;21164;-92
2020/12/18 02:16:42;;;;;;;;;;;;;;;1.96;80.09;101570.84;1756813;80;21178;-94
2020/12/18 02:19:43;;;;;;;64.07;35.27;;;;;;;2.04;79.84;101569.85;1711257;82;20207;-94
2020/12/18 02:22:39;;;;;;;63.63;38.27;;;;;;;2.11;79.48;101568.95;1764059;78;21119;-91
2020/12/18 02:25:20;;;;;;;61.87;39.17;;;;;;;2.06;79.62;101573.22;1740449;80;21128;-82
2020/12/18 02:28:34;;;;;;;56.13;34.40;;;;;;;1.97;79.76;101571.69;1706489;82;21146;-91
2020/12/18 02:31:28;;;;;;;57.80;34.13;;;;;;;1.86;80.04;101576.33;1715525;78;21074;-92
2020/12/18 02:34:50;;;;;;;47.70;30.50;;;;;;;1.91;79.82;101572.45;1771070;78;21107;-93
2020/12/18 02:38:37;;;;;;;;;;;;;;;;;;;;;
2020/12/18 02:41:17;;;;;;;39.67;25.67;;;;;;;1.71;79.76;101569.84;1780248;78;21076;-93
2020/12/18 02:44:37;;;;;;;51.13;31.27;;;;;;;1.67;80.07;101565.70;1770543;78;21161;-92
2020/12/18 02:47:43;;;;;;;49.63;28.40;;;;;;;1.67;80.10;101570.95;1768508;79;21144;-90
2020/12/18 02:50:15;;;;;;;42.50;25.37;;;;;;;1.57;80.54;101562.00;1755322;80;21800;-90
2020/12/18 02:53:27;;;;;;;49.13;36.47;;;;;;;1.58;80.74;101563.67;1846111;76;28057;-92
2020/12/18 02:56:31;;;;;;;42.77;29.80;;;;;;;1.77;80.23;101565.94;1776239;79;21162;-94
2020/12/18 02:59:10;;;;;;;44.37;29.50;;;;;;;1.98;79.46;101562.83;1753973;80;21570;-91
2020/12/18 03:01:50;;;;;;;53.07;30.87;;;;;;;1.92;79.54;101567.58;1771741;80;21160;-93
2020/12/18 03:04:22;;;;;;;41.03;26.13;;;;;;;1.87;79.74;101568.83;1752866;80;21194;-93
2020/12/18 03:07:21;;;;;;;59.27;33.07;;;;;;;1.87;79.93;101568.83;1685482;81;21074;-92
2020/12/18 03:10:05;;;;;;;47.20;29.20;;;;;;;1.95;79.60;101575.72;1736958;80;21158;-94
2020/12/18 03:12:45;;;;;;;49.17;28.20;;;;;;;2.00;78.98;101564.44;1704132;81;21185;-91
2020/12/18 03:15:13;;;;;;;50.33;31.30;;;;;;;1.93;79.05;101571.88;1743852;80;21152;-91
2020/12/18 03:18:33;;;;;;;45.63;28.10;;;;;;;1.82;79.61;101566.96;1801012;78;22491;-92
2020/12/18 03:21:47;;;;;;;39.17;24.57;;;;;;;1.72;79.54;101571.51;1763677;78;21137;-92
2020/12/18 03:25:25;;;;;;;38.57;25.30;;;;;;;1.85;79.03;101566.77;1856258;76;24165;-89
2020/12/18 03:28:03;;;;;;;41.17;25.63;;;;;;;1.69;79.10;101573.02;1796705;78;21136;-92
2020/12/18 03:30:36;;;;;;;35.00;23.23;;;;;;;1.61;79.35;101571.37;1796652;78;21281;-93
2020/12/18 03:33:10;;;;;;;33.17;21.63;;;;;;;1.56;79.59;101568.19;1818534;78;21193;-94
2020/12/18 03:35:54;;;;;;;33.20;21.60;;;;;;;1.62;79.46;101569.13;1801948;77;21060;-95
2020/12/18 03:38:31;;;;;;;34.03;22.63;;;;;;;1.73;78.97;101573.21;1739782;79;21316;-93
2020/12/18 03:41:15;;;;;;;35.50;21.60;;;;;;;1.75;79.04;101570.45;1714211;81;21190;-93
2020/12/18 03:57:12;;;;;;;31.77;23.27;;;;;;;1.69;78.74;101578.75;1628203;86;21799;-93
2020/12/18 04:00:06;;;;;;;39.13;21.87;;;;;;;1.61;78.87;101575.31;1601061;88;21775;-92
2020/12/18 04:02:49;;;;;;;33.70;21.67;;;;;;;1.53;78.85;101574.98;1644476;83;21224;-92
2020/12/18 04:05:19;;;;;;;26.67;16.97;;;;;;;1.59;78.37;101573.25;1609423;83;21229;-93
2020/12/18 04:07:51;;;;;;;33.20;20.70;;;;;;;1.60;78.34;101564.89;1611531;86;21267;-92
2020/12/18 04:10:28;;;;;;;29.90;20.00;;;;;;;1.49;78.59;101566.92;1617140;86;21234;-92
2020/12/18 04:13:15;;;;;;;28.83;19.20;;;;;;;1.42;78.92;101565.63;1576315;87;21252;-95
2020/12/18 04:19:27;;;;;;;27.93;18.20;;;;;;;1.55;78.27;101560.78;1636454;84;21595;-88
2020/12/18 04:21:55;;;;;;;33.57;21.13;;;;;;;1.47;78.49;101561.77;1684574;83;21209;-89
2020/12/18 04:24:51;;;;;;;31.87;20.40;;;;;;;1.45;78.73;101561.02;1812632;78;23373;-91
2020/12/18 04:27:20;;;;;;;26.80;18.43;;;;;;;1.32;78.97;101563.59;1805053;77;21148;-86
2020/12/18 04:29:50;;;;;;;30.93;21.07;;;;;;;1.39;78.94;101562.70;1795292;79;21267;-91
2020/12/18 04:32:19;;;;;;;28.40;19.07;;;;;;;1.39;78.87;101567.96;1784131;79;21765;-90
2020/12/18 04:34:49;;;;;;;34.90;21.47;;;;;;;1.31;79.20;101568.94;1787341;78;21246;-91
2020/12/18 04:37:55;;;;;;;31.93;19.73;;;;;;;1.29;79.34;101557.69;1706224;81;23055;-92
2020/12/18 04:40:44;;;;;;;29.13;19.87;;;;;;;1.34;79.26;101565.64;1679568;83;21145;-93
2020/12/18 04:43:24;;;;;;;31.57;19.77;;;;;;;1.52;78.93;101559.66;1844961;77;22946;-94
2020/12/18 04:45:58;;;;;;;32.30;19.57;;;;;;;1.50;78.87;101563.34;1786503;77;21131;-91
2020/12/18 04:48:28;;;;;;;29.37;19.10;;;;;;;1.48;79.03;101570.48;1785561;78;21110;-93
2020/12/18 04:51:08;;;;;;;30.53;19.87;;;;;;;1.44;78.97;101573.77;1827934;76;21154;-90
2020/12/18 04:53:39;;;;;;;29.73;19.80;;;;;;;1.43;79.02;101573.86;1785787;77;21142;-92
2020/12/18 04:56:15;;;;;;;25.87;18.53;;;;;;;1.48;78.89;101577.88;1809833;77;21147;-91
2020/12/18 04:58:53;;;;;;;22.10;15.60;;;;;;;1.55;78.36;101573.92;1767322;77;21155;-89
2020/12/18 05:01:24;;;;;;;27.37;18.97;;;;;;;1.53;78.32;101573.19;1831982;75;21127;-87
2020/12/18 05:04:01;;;;;;;23.35;16.27;;;;;;;1.40;78.61;101576.23;1784815;78;21136;-89
2020/12/18 05:06:32;;;;;;;22.67;16.30;;;;;;;1.32;78.83;101582.45;1752004;78;21124;-92
2020/12/18 05:09:01;;;;;;;23.87;15.07;;;;;;;1.36;78.82;101577.38;1774511;80;21261;-93
2020/12/18 05:11:50;;;;;;;27.13;16.53;;;;;;;1.48;78.42;101575.73;1771112;78;21101;-93
2020/12/18 05:15:47;;;;;;;;;;;;;;;;;;;;;
2020/12/18 05:18:37;;;;;;;22.13;14.80;;;;;;;1.43;78.47;101587.00;1680397;84;21242;-93
2020/12/18 05:21:15;;;;;;;25.13;15.93;;;;;;;1.38;78.66;101583.38;1677175;84;21225;-95
2020/12/18 05:24:13;;;;;;;24.77;16.67;;;;;;;1.48;78.34;101580.52;1680470;84;21344;-96
2020/12/18 05:27:36;;;;;;;25.33;16.40;;;;;;;1.49;78.37;101594.03;1678786;84;21199;-95
2020/12/18 05:30:53;;;;;;;;;;;;;;;;;;;;;
2020/12/18 05:33:39;;;;;;;24.07;14.77;;;;;;;1.30;78.79;101589.11;1652847;84;21195;-88
2020/12/18 05:43:14;;;;;;;21.53;14.93;;;;;;;1.31;78.89;101586.84;1610821;85;21143;-95
2020/12/18 05:46:42;;;;;;;;;;;;;;;;;;;;;
2020/12/18 06:52:12;;;;;;;31.80;20.17;;;;;;;1.53;77.79;101613.91;1528448;85;21227;-92
2020/12/18 06:55:30;;;;;;;28.80;20.30;;;;;;;1.44;78.03;101621.06;1653570;84;21147;-95
2020/12/18 06:58:30;;;;;;;33.87;21.23;;;;;;;1.38;78.25;101621.94;1685190;81;21109;-88
2020/12/18 07:01:44;;;;;;;35.17;22.87;;;;;;;1.50;77.90;101624.61;1673566;83;21177;-92
2020/12/18 07:04:38;;;;;;;38.23;23.07;;;;;;;1.50;77.71;101621.15;1665065;84;21168;-93
2020/12/18 07:07:25;;;;;;;31.90;22.07;;;;;;;1.44;77.99;101628.11;1614983;86;21035;-95
2020/12/18 07:10:46;;;;;;;33.80;20.80;;;;;;;1.38;78.09;101627.20;1638631;86;21243;-91
2020/12/18 07:13:19;;;;;;;40.33;23.67;;;;;;;1.42;77.93;101622.12;1593940;86;21226;-90
2020/12/18 07:15:51;;;;;;;33.80;22.53;;;;;;;1.48;77.93;101620.41;1644125;85;21220;-92
2020/12/18 07:18:36;;;;;;;35.77;24.00;;;;;;;1.44;78.12;101617.61;1646268;86;21317;-92
2020/12/18 07:21:28;;;;;;;37.20;23.53;;;;;;;1.38;78.06;101614.06;1648325;86;21349;-92
2020/12/18 07:24:28;;;;;;;35.37;23.13;;;;;;;1.28;78.43;101614.64;1623848;88;21161;-91
2020/12/18 07:27:42;;;;;;;29.00;20.57;;;;;;;1.38;78.08;101612.75;1588037;86;21200;-91
2020/12/18 07:30:13;;;;;;;40.97;27.77;;;;;;;1.36;77.93;101620.24;1676862;84;21237;-93
2020/12/18 07:32:49;;;;;;;40.07;25.13;;;;;;;1.27;78.44;101620.82;1680074;83;21168;-90
2020/12/18 07:35:43;;;;;;;38.50;23.37;;;;;;;1.27;78.49;101618.67;1675271;84;21153;-92
2020/12/18 07:38:18;;;;;;;34.53;23.90;;;;;;;1.33;78.36;101620.42;1664710;84;21221;-93
2020/12/18 07:40:53;;;;;;;32.93;21.73;;;;;;;1.49;77.97;101622.11;1670581;84;21756;-95
2020/12/18 07:43:30;;;;;;;31.10;21.00;;;;;;;1.53;77.90;101625.74;1668855;84;21197;-94
2020/12/18 07:46:09;;;;;;;35.58;21.75;;;;;;;1.47;77.80;101631.39;1669282;86;21214;-90
2020/12/18 07:49:12;;;;;;;32.07;21.53;;;;;;;1.41;77.83;101618.62;1665209;83;21201;-92
2020/12/18 07:52:28;;;;;;;36.25;23.85;;;;;;;1.49;77.91;101620.31;1628709;85;21159;-90
2020/12/18 07:55:16;;;;;;;34.13;22.17;;;;;;;1.55;77.65;101624.33;1666682;83;21139;-92
2020/12/18 07:58:04;;;;;;;35.50;23.50;;;;;;;1.46;77.75;101624.44;1678818;81;21153;-90
2020/12/18 08:00:32;;;;;;;31.30;21.23;;;;;;;1.38;78.05;101628.03;1668310;83;21153;-89
2020/12/18 08:02:59;;;;;;;35.27;22.87;;;;;;;1.42;78.04;101627.38;1670716;83;21164;-90
2020/12/18 08:05:26;;;;;;;33.10;21.80;;;;;;;1.53;77.75;101634.10;1665943;83;21043;-89
2020/12/18 08:08:00;;;;;;;29.37;20.30;;;;;;;1.58;77.85;101632.00;1644263;86;21302;-91
2020/12/18 08:11:17;;;;;;;32.45;21.60;;;;;;;1.57;77.93;101625.08;1613166;86;21171;-90
2020/12/18 08:13:45;;;;;;;45.57;25.07;;;;;;;1.54;77.75;101630.52;1644487;86;21267;-91
2020/12/18 08:16:24;;;;;;;37.97;25.63;;;;;;;1.52;77.76;101637.18;1600740;88;21483;-90
2020/12/18 08:19:03;;;;;;;40.67;28.23;;;;;;;1.65;77.70;101636.41;1598900;88;21183;-90
2020/12/18 08:21:36;;;;;;;34.40;24.77;;;;;;;1.71;77.63;101630.75;1619055;87;21832;-91
2020/12/18 08:24:31;;;;;;;41.93;26.70;;;;;;;1.67;77.75;101628.78;1622493;88;21188;-91
2020/12/18 08:27:10;;;;;;;38.77;25.57;;;;;;;1.66;77.75;101625.80;1637026;87;21377;-89
2020/12/18 08:29:48;;;;;;;37.97;24.83;;;;;;;1.66;77.70;101628.91;1675543;84;21730;-89
2020/12/18 08:32:35;;;;;;;35.23;23.33;;;;;;;1.11;77.30;101528.17;1672370;84;21356;-92
2020/12/18 08:35:11;;;;;;;39.63;26.53;;;;;;;1.78;77.28;101625.47;1679972;84;22103;-92
2020/12/18 08:37:59;;;;;;;40.33;24.90;;;;;;;1.66;77.51;101615.28;1619385;86;21161;-90
2020/12/18 08:51:55;;;;;;;31.67;19.60;;;;;;;1.35;78.27;101611.97;1768669;78;23196;-87
2020/12/18 08:54:30;;;;;;;37.00;21.07;;;;;;;1.23;78.52;101611.45;1762571;79;21410;-90
2020/12/18 08:57:29;;;;;;;28.97;19.73;;;;;;;1.40;77.94;101605.61;1840394;76;23583;-90
2020/12/18 09:00:10;;;;;;;29.63;18.63;;;;;;;1.36;77.71;101614.98;1846058;77;21155;-90
2020/12/18 09:02:59;;;;;;;28.47;20.47;;;;;;;1.30;77.89;101612.76;1752314;79;21336;-92
2020/12/18 09:05:45;;;;;;;31.17;20.93;;;;;;;1.26;77.82;101611.72;1777075;80;21376;-93
2020/12/18 09:08:19;;;;;;;;;;;;;;;1.36;77.87;101612.36;1762083;80;21610;-94
2020/12/18 09:11:07;;;;;;;29.77;18.23;;;;;;;1.48;76.79;101610.73;1754573;81;20189;-94
2020/12/18 09:16:33;;;;;;;30.30;20.43;;;;;;;1.33;77.28;101597.27;1778748;79;23582;-91
2020/12/18 09:19:20;;;;;;;26.20;17.87;;;;;;;1.34;77.31;101599.80;1739699;80;21135;-88
2020/12/18 09:22:10;;;;;;;21.70;15.27;;;;;;;1.48;76.50;101598.07;1715996;81;21167;-87
2020/12/18 09:28:09;;;;;;;24.90;16.13;;;;;;;1.39;76.35;101582.89;1735376;79;21215;-93
2020/12/18 09:31:09;;;;;;;21.67;13.90;;;;;;;1.31;76.08;101589.47;1716943;81;21330;-90
2020/12/18 09:33:38;;;;;;;22.00;14.47;;;;;;;1.42;75.87;101588.80;1707259;83;21173;-85
2020/12/18 09:36:16;;;;;;;29.17;16.63;;;;;;;1.46;75.50;101582.87;1683484;81;21227;-93
2020/12/18 09:38:47;;;;;;;25.67;17.03;;;;;;;1.40;76.02;101586.73;1687333;83;21326;-91
2020/12/18 09:41:24;;;;;;;23.40;16.27;;;;;;;1.36;76.13;101584.78;1683295;84;21180;-89
2020/12/18 09:44:00;;;;;;;23.80;16.10;;;;;;;1.35;76.06;101583.08;1683269;84;21200;-90
2020/12/18 09:46:39;;;;;;;25.30;17.07;;;;;;;1.49;75.67;101580.90;1660695;85;21497;-90
2020/12/18 09:49:14;;;;;;;27.77;17.57;;;;;;;1.56;75.74;101578.70;1673719;85;21302;-93
2020/12/18 09:51:47;;;;;;;22.23;15.23;;;;;;;1.55;75.71;101561.27;1666031;85;21171;-91
2020/12/18 09:54:40;;;;;;;20.57;14.90;;;;;;;1.58;75.42;101561.05;1658356;84;21183;-92
2020/12/18 09:57:08;;;;;;;22.83;13.83;;;;;;;1.58;74.40;101559.73;1666619;84;21334;-91
2020/12/18 09:59:39;;;;;;;14.83;11.20;;;;;;;1.69;74.53;101555.92;1695688;83;21150;-93
2020/12/18 10:02:08;;;;;;;14.23;10.73;;;;;;;1.92;73.79;101562.77;1692421;84;21199;-91
2020/12/18 10:04:37;;;;;;;16.37;11.47;;;;;;;2.00;72.42;101556.99;1701954;83;21292;-91
2020/12/18 10:07:06;;;;;;;22.97;13.40;;;;;;;1.97;71.50;101558.53;1674356;84;21106;-91
2020/12/18 10:09:34;;;;;;;18.40;12.63;;;;;;;1.92;71.95;101558.82;1698686;83;21220;-92
2020/12/18 10:12:07;;;;;;;17.00;11.87;;;;;;;1.91;72.53;101555.84;1665275;85;21172;-92
2020/12/18 10:14:35;;;;;;;17.80;12.43;;;;;;;1.95;72.20;101563.89;1670256;85;21184;-91
2020/12/18 10:17:06;;;;;;;18.97;13.07;;;;;;;2.02;71.84;101558.59;1657580;85;21189;-90
2020/12/18 10:20:07;;;;;;;18.27;14.30;;;;;;;2.25;71.86;101550.94;1794156;79;23138;-92
2020/12/18 10:22:36;;;;;;;19.73;13.53;;;;;;;2.25;71.64;101552.25;1756171;80;21149;-87
2020/12/18 10:25:05;;;;;;;20.53;13.87;;;;;;;2.21;70.55;101546.36;1678850;83;21145;-92
2020/12/18 10:27:56;;;;;;;22.83;15.13;;;;;;;2.18;71.06;101550.98;1700450;83;21343;-93
2020/12/18 10:30:25;;;;;;;25.90;16.23;;;;;;;2.09;70.78;101548.04;1689731;85;21230;-86
2020/12/18 10:33:24;;;;;;;20.37;14.60;;;;;;;2.00;70.75;101551.28;1745417;81;21177;-91
2020/12/18 10:36:04;;;;;;;30.50;17.00;;;;;;;2.07;71.24;101551.70;1732312;79;22079;-92
2020/12/18 10:38:34;;;;;;;23.00;17.77;;;;;;;2.03;71.41;101551.06;1707332;82;21196;-91
2020/12/18 10:41:02;;;;;;;23.60;15.70;;;;;;;1.85;71.84;101523.39;1681188;83;21758;-90
2020/12/18 10:43:31;;;;;;;28.03;16.87;;;;;;;1.89;71.38;101540.16;1707346;82;21700;-92
2020/12/18 10:46:00;;;;;;;27.30;16.07;;;;;;;1.80;71.87;101544.71;1722692;82;21188;-91
2020/12/18 10:48:28;;;;;;;23.27;15.37;;;;;;;1.78;72.43;101548.40;1688293;82;21195;-91
2020/12/18 10:51:01;;;;;;;21.87;14.03;;;;;;;1.91;72.45;101547.95;1696156;83;21308;-92
2020/12/18 10:53:30;;;;;;;31.27;18.40;;;;;;;1.95;72.68;101536.28;1701150;81;21122;-90
2020/12/18 10:56:09;;;;;;;24.87;16.50;;;;;;;1.92;72.83;101543.91;1709515;81;21161;-93
2020/12/18 10:58:42;;;;;;;23.03;16.60;;;;;;;1.87;73.30;101532.02;1710271;82;21290;-94
2020/12/18 11:01:18;;;;;;;23.00;16.00;;;;;;;1.80;72.84;101536.83;1725101;82;21410;-94
2020/12/18 11:03:52;;;;;;;25.20;17.20;;;;;;;0.69;72.97;101327.88;1694936;83;21291;-90
2020/12/18 11:06:47;;;;;;;22.50;15.77;;;;;;;1.96;73.04;101524.83;1643642;82;21098;-92
2020/12/18 11:09:26;;;;;;;19.93;14.37;;;;;;;1.87;73.59;101528.07;1670817;82;21191;-91
2020/12/18 11:11:59;;;;;;;20.90;14.20;;;;;;;1.85;73.88;101533.42;1678153;84;21131;-95
2020/12/18 11:14:45;;;;;;;19.93;13.47;;;;;;;1.87;73.86;101533.33;1676626;84;21657;-94
2020/12/18 11:17:45;;;;;;;17.40;13.97;;;;;;;2.02;73.38;101528.35;1671962;84;21150;-93
2020/12/18 11:20:22;;;;;;;20.30;12.43;;;;;;;2.02;72.94;101524.89;1673798;84;21202;-91
2020/12/18 11:22:50;;;;;;;16.43;11.20;;;;;;;1.90;73.04;101537.91;1676113;84;21557;-90
2020/12/18 11:25:42;;;;;;;21.83;11.67;;;;;;;1.86;73.07;101522.43;1617620;87;21330;-92
2020/12/18 11:28:13;;;;;;;11.47;9.67;;;;;;;1.79;73.12;101529.90;1660999;84;21149;-90
2020/12/18 11:30:47;;;;;;;12.87;10.33;;;;;;;1.88;72.70;101523.16;1671435;84;21161;-90
2020/12/18 11:33:18;;;;;;;14.10;9.83;;;;;;;1.90;72.49;101530.48;1652328;86;21225;-92
2020/12/18 11:35:47;;;;;;;11.43;9.40;;;;;;;1.82;72.68;101535.41;1594553;86;21267;-92
2020/12/18 11:38:15;;;;;;;13.40;10.00;;;;;;;1.45;72.86;101482.20;1669045;84;21177;-91
2020/12/18 11:40:48;;;;;;;14.30;10.73;;;;;;;1.68;73.28;101530.60;1634918;86;21319;-90
2020/12/18 11:43:23;;;;;;;13.30;10.47;;;;;;;1.73;73.16;101528.52;1688987;83;21194;-91
2020/12/18 11:46:10;;;;;;;11.93;9.33;;;;;;;1.77;73.17;101524.35;1813172;77;22695;-91
2020/12/18 11:48:39;;;;;;;13.53;10.37;;;;;;;1.65;73.41;101520.77;1749846;80;21172;-88
2020/12/18 11:51:09;;;;;;;14.60;10.03;;;;;;;1.64;73.72;101522.55;1756590;81;21622;-92
2020/12/18 11:53:40;;;;;;;15.67;10.40;;;;;;;1.66;73.88;101525.92;1727681;81;21314;-89
2020/12/18 11:56:18;;;;;;;17.80;11.27;;;;;;;1.82;73.04;101520.47;1723077;82;21216;-94
2020/12/18 11:58:47;;;;;;;18.67;11.37;;;;;;;1.85;73.11;101518.13;1750858;81;21175;-94
2020/12/18 12:01:34;;;;;;;17.77;13.23;;;;;;;1.76;73.29;101524.84;1753522;81;21234;-96
2020/12/18 12:05:17;;;;;;;17.53;12.13;;;;;;;1.69;73.80;101524.38;1745064;79;21137;-93
2020/12/18 12:08:43;;;;;;;11.20;9.50;;;;;;;1.79;73.73;101515.89;1757903;80;21243;-91
2020/12/18 12:31:54;;;;;;;14.40;12.07;;;;;;;3.17;69.69;101498.38;1806858;78;22971;-92
2020/12/18 12:34:23;;;;;;;13.00;11.60;;;;;;;3.04;70.15;101507.64;1774006;80;21298;-91
2020/12/18 12:36:59;;;;;;;14.20;11.80;;;;;;;2.82;70.06;101497.80;1693622;81;21187;-91
2020/12/18 12:39:40;;;;;;;13.33;11.93;;;;;;;2.58;70.75;101499.54;1686206;83;21217;-91
2020/12/18 12:42:15;;;;;;;17.27;11.63;;;;;;;2.33;71.52;101496.83;1706269;84;21363;-91
2020/12/18 12:45:01;;;;;;;12.47;10.60;;;;;;;2.22;72.00;101499.84;1692927;83;21236;-91
2020/12/18 12:47:31;;;;;;;15.33;11.77;;;;;;;2.22;71.85;101505.09;1712860;83;21215;-93
2020/12/18 12:50:18;;;;;;;13.67;11.90;;;;;;;2.16;72.08;101499.78;1711733;83;21196;-92
2020/12/18 12:53:27;;;;;;;20.37;14.28;;;;;;;2.06;72.60;101499.58;1691863;83;21913;-90
2020/12/18 12:55:56;;;;;;;21.07;14.10;;;;;;;1.92;73.10;101504.47;1665203;84;21214;-91
2020/12/18 12:58:32;;;;;;;17.93;14.67;;;;;;;1.95;73.39;101499.46;1691709;84;21580;-89
2020/12/18 13:01:00;;;;;;;19.10;12.77;;;;;;;2.11;73.13;101506.69;1687075;84;21202;-93
2020/12/18 13:03:29;;;;;;;15.57;13.60;;;;;;;1.90;73.07;101468.69;1714876;82;21607;-91
2020/12/18 13:05:58;;;;;;;19.87;14.63;;;;;;;2.08;73.29;101503.42;1698020;82;21272;-92
2020/12/18 13:08:54;;;;;;;20.20;14.20;;;;;;;2.02;73.52;101506.48;1677883;84;21188;-90
2020/12/18 13:11:23;;;;;;;17.00;13.47;;;;;;;1.97;73.86;101508.57;1689583;83;21196;-91
2020/12/18 13:13:52;;;;;;;19.40;13.23;;;;;;;1.93;74.20;101505.30;1699492;82;21189;-91
2020/12/18 13:16:26;;;;;;;19.33;14.03;;;;;;;2.02;74.14;101507.31;1631535;85;21303;-91
2020/12/18 13:19:17;;;;;;;17.33;14.10;;;;;;;1.98;74.19;101504.53;1655148;82;21773;-96
2020/12/18 13:21:45;;;;;;;22.00;15.57;;;;;;;1.86;74.60;101508.80;1663426;85;21208;-92
2020/12/18 13:24:14;;;;;;;18.33;13.63;;;;;;;1.74;75.16;101507.01;1652581;84;21171;-90
2020/12/18 13:26:41;;;;;;;20.67;15.50;;;;;;;1.79;75.25;101500.11;1650438;85;21219;-90
2020/12/18 13:29:10;;;;;;;17.80;14.50;;;;;;;1.90;75.09;101506.36;1652454;86;21157;-92
2020/12/18 13:31:41;;;;;;;20.73;15.27;;;;;;;1.88;74.85;101508.22;1638845;86;21196;-90
2020/12/18 13:34:08;;;;;;;25.43;17.50;;;;;;;1.75;75.16;101502.97;1659559;86;21326;-91
2020/12/18 13:36:36;;;;;;;23.90;17.13;;;;;;;1.67;75.45;101504.41;1678985;84;21313;-90
2020/12/18 13:39:05;;;;;;;22.17;15.80;;;;;;;1.64;75.62;101505.92;1686599;83;21358;-92
2020/12/18 13:41:50;;;;;;;21.90;16.50;;;;;;;1.66;75.74;101504.06;1735574;82;21310;-91
2020/12/18 13:44:24;;;;;;;21.17;15.67;;;;;;;1.75;75.45;101508.68;1715442;82;21172;-89
2020/12/18 13:47:06;;;;;;;25.13;17.10;;;;;;;1.69;75.60;101510.41;1711069;82;21244;-92
2020/12/18 13:49:34;;;;;;;27.87;17.57;;;;;;;1.57;76.18;101502.88;1726219;82;21622;-88
2020/12/18 13:52:01;;;;;;;29.77;20.00;;;;;;;1.51;76.42;101512.48;1730020;82;21177;-91
2020/12/18 13:54:30;;;;;;;24.30;18.40;;;;;;;1.60;76.42;101497.87;1747810;81;21139;-92
2020/12/18 13:56:58;;;;;;;30.60;19.23;;;;;;;1.58;76.60;101503.70;1743023;80;21295;-92
2020/12/18 13:59:44;;;;;;;29.20;20.47;;;;;;;1.50;76.99;101509.47;1723393;82;21180;-93
2020/12/18 14:02:19;;;;;;;25.63;18.33;;;;;;;1.46;77.15;101506.20;1739568;80;21376;-91
2020/12/18 14:04:54;;;;;;;27.90;19.53;;;;;;;1.54;77.10;101509.19;1741967;81;21179;-93
2020/12/18 14:07:45;;;;;;;28.67;19.50;;;;;;;1.60;76.94;101504.45;1741141;82;21279;-91
2020/12/18 14:10:39;;;;;;;29.53;19.53;;;;;;;1.49;77.30;101500.75;1738838;82;21193;-90
2020/12/18 14:13:13;;;;;;;33.27;20.57;;;;;;;1.34;77.94;101489.94;1738267;81;21172;-92
2020/12/18 14:15:49;;;;;;;32.57;20.30;;;;;;;1.34;78.10;101498.66;1713537;81;21276;-92
2020/12/18 14:18:19;;;;;;;26.73;18.17;;;;;;;1.44;77.91;101505.94;1739107;81;21191;-91
2020/12/18 14:21:19;;;;;;;27.90;19.23;;;;;;;1.44;77.95;101499.38;1737798;81;21535;-93
2020/12/18 14:24:28;;;;;;;28.45;17.95;;;;;;;1.36;78.24;101503.81;1672519;82;21159;-91
2020/12/18 14:27:17;;;;;;;32.83;17.73;;;;;;;1.33;78.53;101495.64;1673654;84;21190;-93
2020/12/18 14:29:48;;;;;;;28.30;16.70;;;;;;;1.46;78.10;101491.75;1686849;84;21259;-92
2020/12/18 14:32:24;;;;;;;28.37;19.47;;;;;;;1.44;78.18;101498.05;1726572;82;21188;-94
2020/12/18 14:35:05;;;;;;;27.67;17.63;;;;;;;1.33;78.44;101504.00;1737627;81;21286;-94
2020/12/18 14:37:46;;;;;;;31.13;19.20;;;;;;;1.26;78.85;101494.83;1737723;81;21177;-93
2020/12/18 14:40:30;;;;;;;29.33;17.93;;;;;;;1.34;78.71;101496.03;1739561;81;21223;-92
2020/12/18 14:43:38;;;;;;;33.17;20.97;;;;;;;1.32;78.66;101494.45;1679155;84;21224;-92
2020/12/18 14:46:45;;;;;;;31.47;19.33;;;;;;;1.23;79.05;101493.25;1683219;84;21201;-92
2020/12/18 14:49:21;;;;;;;;;;;;;;;1.21;79.25;101489.89;1684929;83;21240;-90
2020/12/18 14:52:04;;;;;;;26.20;17.80;;;;;;;1.36;78.92;101492.83;1678755;84;20201;-92
2020/12/18 14:54:40;;;;;;;30.37;19.90;;;;;;;1.43;78.72;101487.16;1675163;85;21216;-90
2020/12/18 14:57:36;;;;;;;27.37;17.53;;;;;;;1.34;78.70;101490.77;1701163;82;21161;-91
2020/12/18 15:00:06;;;;;;;31.23;19.57;;;;;;;1.21;79.03;101496.45;1706761;80;21145;-88
2020/12/18 15:02:36;;;;;;;34.37;19.50;;;;;;;1.22;79.15;101491.55;1690662;84;21307;-89
2020/12/18 15:05:28;;;;;;;29.20;18.40;;;;;;;1.30;78.91;101487.98;1697298;83;21067;-89
2020/12/18 15:08:02;;;;;;;36.40;22.37;;;;;;;1.25;79.03;101485.28;1695262;83;21196;-90
2020/12/18 15:10:52;;;;;;;34.40;22.07;;;;;;;1.15;79.36;101485.88;1682864;83;21202;-92
2020/12/18 15:13:32;;;;;;;27.73;18.53;;;;;;;1.21;79.34;101491.68;1676224;84;21161;-92